Bouzas — EAPC — position and weather

sailwx.info

Track history (hours):
 
Tides and Currents Weather Stations Pressure Air Temp Water Temp Dewpoint Dewpoint Depression Visibility Wind Speed Wind Dir Waves Ship Positions

Bouzas

Last reported at 2016-May-28 18:03 UTC. Time now 2016-May-30 22:11 UTC.
Position N 46°18' W 004°11'.

Length 142 m; draft 5.5 m.

Type: Cargo ship. MMSI: 224029000.

Date/timePositionNaut miles runAvg speedWind from/ knotsBaromVisibWave heightAir tempDewpointWater temp
2016-May-28 18:03N 46°18' W 004°11'1017.5
2016-May-28 17:30N 46°23' W 003°60'1717.5
2016-May-28 16:33N 46°33' W 003°40'1817.6
2016-May-28 15:33N 46°43' W 003°19'1817.7
2016-May-28 14:33N 46°52' W 002°57'1717.7
2016-May-28 13:34N 47°02' W 002°36'1716.7
2016-May-28 12:34N 47°13' W 002°17'7 6.6
2016-May-28 11:31N 47°17' W 002°10'0 0.0
2016-May-28 10:31N 47°17' W 002°10'0 0.0
2016-May-28 09:25N 47°17' W 002°10'0 0.0
2016-May-28 08:31N 47°17' W 002°10'0 0.0
2016-May-28 07:31N 47°17' W 002°10'0 0.0
2016-May-28 06:31N 47°17' W 002°10'0 0.0
2016-May-28 05:31N 47°17' W 002°10'0 0.0
2016-May-28 04:31N 47°17' W 002°10'0 0.0
2016-May-28 03:32N 47°17' W 002°10'0 0.0
2016-May-28 02:28N 47°17' W 002°10'0 0.0
2016-May-28 01:31N 47°17' W 002°10'0 0.0
2016-May-28 00:31N 47°17' W 002°10'0 0.0
2016-May-27 23:31N 47°17' W 002°10'0 0.0
2016-May-27 22:31N 47°17' W 002°10'0 0.0
2016-May-27 21:31N 47°17' W 002°10'0 0.0
2016-May-27 20:31N 47°17' W 002°10'0 0.0
2016-May-27 19:33N 47°17' W 002°10'1010.3
2016-May-27 18:34N 47°09' W 002°19'1616.3
2016-May-27 17:33N 46°60' W 002°39'1918.6
2016-May-27 16:33N 46°49' W 003°01'1918.2
2016-May-27 15:30N 46°37' W 003°23'1718.2
2016-May-27 14:33N 46°27' W 003°44'  
2016-May-23 23:31N 46°44' W 003°16'1918.6
2016-May-23 22:30N 46°55' W 002°53'1516.4
2016-May-23 21:33N 47°02' W 002°34'1716.7
2016-May-23 20:34N 47°14' W 002°16'6 5.4
2016-May-23 19:33N 47°17' W 002°10'0 0.0
2016-May-23 18:33N 47°17' W 002°10'0 0.0
2016-May-23 17:33N 47°17' W 002°10'0 0.0
2016-May-23 16:26N 47°17' W 002°10'0 0.0
2016-May-23 15:32N 47°17' W 002°10'0 0.0
2016-May-23 14:23N 47°17' W 002°10'0 0.0
2016-May-23 13:32N 47°17' W 002°10'0 0.0
2016-May-23 12:32N 47°17' W 002°10'0 0.0
2016-May-23 11:32N 47°17' W 002°10'0 0.0
2016-May-23 10:32N 47°17' W 002°10'0 0.0
2016-May-23 09:29N 47°17' W 002°10'0 0.0
2016-May-23 08:29N 47°17' W 002°10'0 0.0
2016-May-23 07:32N 47°17' W 002°10'0 0.0
2016-May-23 06:32N 47°17' W 002°10'0 0.0
2016-May-23 05:29N 47°17' W 002°10'0 0.0
2016-May-23 04:32N 47°17' W 002°10'0 0.0
2016-May-23 03:32N 47°17' W 002°10'0 0.0
2016-May-23 02:32N 47°17' W 002°10'0 0.0
2016-May-23 01:32N 47°17' W 002°10'0 0.0
2016-May-23 00:32N 47°17' W 002°10'0 0.0
2016-May-22 23:32N 47°17' W 002°10'0 0.0
2016-May-22 22:32N 47°17' W 002°10'0 0.0
2016-May-22 21:32N 47°17' W 002°10'0 0.0
2016-May-22 20:32N 47°17' W 002°10'0 0.0
2016-May-22 19:29N 47°17' W 002°10'0 0.0
2016-May-22 18:32N 47°17' W 002°10'0 0.0
2016-May-22 17:32N 47°17' W 002°10'19426219.3
2016-May-22 17:13N 31°39' E 034°32'0 0.0
2016-May-22 16:33N 31°39' E 034°32'194272067.3
2016-May-22 16:32N 47°17' W 002°10'0 0.0
2016-May-22 15:32N 47°17' W 002°10'194215163.8
2016-May-22 15:24N 31°39' E 034°32'19422225.6
2016-May-22 14:32N 47°17' W 002°10'0 0.0
2016-May-22 13:32N 47°17' W 002°10'19424218.8
2016-May-22 13:04N 31°39' E 034°32'19423289.7
2016-May-22 12:29N 47°17' W 002°10'0 0.0
2016-May-22 11:31N 47°17' W 002°10'0 0.0
2016-May-22 10:31N 47°17' W 002°10'0 0.0
2016-May-22 09:31N 47°17' W 002°10'0 0.0
2016-May-22 08:31N 47°17' W 002°10'0 0.0
2016-May-22 07:31N 47°17' W 002°10'19425440.1
2016-May-22 07:10N 31°39' E 034°32'0 0.0
2016-May-22 06:33N 31°39' E 034°32'194259241.9
2016-May-22 06:31N 47°17' W 002°10'0 0.0
2016-May-22 05:31N 47°17' W 002°10'19422009.4
2016-May-22 04:33N 31°39' E 034°32'194256833.6
2016-May-22 04:31N 47°17' W 002°10'19422009.9
2016-May-22 03:33N 31°39' E 034°32'194256375.2
2016-May-22 03:31N 47°17' W 002°10'0 0.0
2016-May-22 02:31N 47°17' W 002°10'19428815.3
2016-May-22 02:18N 31°39' E 034°32'0 0.0
2016-May-22 01:33N 31°39' E 034°32'194214295.6
2016-May-22 01:25N 47°17' W 002°10'19422219.2
2016-May-22 00:33N 31°39' E 034°32'194275984.2
2016-May-22 00:31N 47°17' W 002°10'0 0.0
2016-May-21 23:28N 47°17' W 002°10'0 0.0
2016-May-21 22:31N 47°17' W 002°10'0 0.0
2016-May-21 21:31N 47°17' W 002°10'0 0.0
2016-May-21 20:28N 47°17' W 002°10'0 0.0
2016-May-21 19:31N 47°17' W 002°10'19424265.1
2016-May-21 19:04N 31°39' E 034°32'19423559.3
2016-May-21 18:31N 47°17' W 002°10'0 0.0
2016-May-21 17:31N 47°17' W 002°10'0 0.0
2016-May-21 16:25N 47°17' W 002°10'0 0.0
2016-May-21 15:31N 47°17' W 002°10'0 0.0
2016-May-21 14:31N 47°17' W 002°10'0 0.0
2016-May-21 13:31N 47°17' W 002°10'0 0.0
2016-May-21 12:31N 47°17' W 002°10'194274367.4
2016-May-21 12:29N 31°39' E 034°32'19421992.7
2016-May-21 11:31N 47°17' W 002°10'0 0.0
2016-May-21 10:31N 47°17' W 002°10'19425216.8
2016-May-21 10:08N 31°39' E 034°32'19423357.6
2016-May-21 09:34N 47°17' W 002°10'0 0.0
2016-May-21 08:31N 47°17' W 002°10'0 0.0
2016-May-21 07:33N 47°17' W 002°10'0 0.0
2016-May-21 06:33N 47°17' W 002°10'0 0.0
2016-May-21 05:33N 47°17' W 002°10'0 0.0
2016-May-21 04:33N 47°17' W 002°10'0 0.0
2016-May-21 03:33N 47°17' W 002°10'0 0.0
2016-May-21 02:33N 47°17' W 002°10'0 0.0
2016-May-21 01:33N 47°17' W 002°10'0 0.0
2016-May-21 00:33N 47°17' W 002°10'0 0.0
2016-May-20 23:33N 47°17' W 002°10'0 0.0
2016-May-20 22:33N 47°17' W 002°10'0 0.0
2016-May-20 21:33N 47°17' W 002°10'0 0.0
2016-May-20 20:33N 47°17' W 002°10'0 0.0
2016-May-20 19:33N 47°17' W 002°10'0 0.0
2016-May-20 18:33N 47°17' W 002°10'0 0.0
2016-May-20 17:33N 47°17' W 002°10'0 0.0
2016-May-20 16:33N 47°17' W 002°10'0 0.0
2016-May-20 15:33N 47°17' W 002°10'0 0.0
2016-May-20 14:30N 47°17' W 002°10'0 0.0
2016-May-20 13:33N 47°17' W 002°10'0 0.0
2016-May-20 12:33N 47°17' W 002°10'0 0.0
2016-May-20 11:33N 47°17' W 002°10'0 0.0
2016-May-20 10:33N 47°17' W 002°10'0 0.0
2016-May-20 09:33N 47°17' W 002°10'0 0.0
2016-May-20 08:33N 47°17' W 002°10'0 0.0
2016-May-20 07:30N 47°17' W 002°10'0 0.0
2016-May-20 06:33N 47°17' W 002°10'0 0.0
2016-May-20 05:33N 47°17' W 002°10'0 0.0
2016-May-20 04:33N 47°17' W 002°10'0 0.0
2016-May-20 03:33N 47°17' W 002°10'0 0.0
2016-May-20 02:32N 47°17' W 002°10'0 0.0
2016-May-20 01:29N 47°17' W 002°10'0 0.0
2016-May-20 00:32N 47°17' W 002°10'0 0.0
2016-May-19 23:32N 47°17' W 002°10'0 0.0
2016-May-19 22:32N 47°17' W 002°10'0 0.0
2016-May-19 21:29N 47°17' W 002°10'0 0.0
2016-May-19 20:33N 47°17' W 002°10'1413.5
2016-May-19 19:33N 47°07' W 002°23'1615.7
2016-May-19 18:33N 46°58' W 002°42'  
Track history (hours):
 
Tides and Currents Weather Stations Pressure Air Temp Water Temp Dewpoint Dewpoint Depression Visibility Wind Speed Wind Dir Waves Ship Positions

Bouzas

Last reported at 2016-May-28 18:03 UTC. Time now 2016-May-30 22:11 UTC.
Position N 46°18' W 004°11'.

Length 142 m; draft 5.5 m.

Type: Cargo ship. MMSI: 224029000.

Date/timePositionNaut miles runAvg speedWind from/ knotsBaromVisibWave heightAir tempDewpointWater temp
2016-May-28 18:03N 46°18' W 004°11'1017.5
2016-May-28 17:30N 46°23' W 003°60'1717.5
2016-May-28 16:33N 46°33' W 003°40'1817.6
2016-May-28 15:33N 46°43' W 003°19'1817.7
2016-May-28 14:33N 46°52' W 002°57'1717.7
2016-May-28 13:34N 47°02' W 002°36'1716.7
2016-May-28 12:34N 47°13' W 002°17'7 6.6
2016-May-28 11:31N 47°17' W 002°10'0 0.0
2016-May-28 10:31N 47°17' W 002°10'0 0.0
2016-May-28 09:25N 47°17' W 002°10'0 0.0
2016-May-28 08:31N 47°17' W 002°10'0 0.0
2016-May-28 07:31N 47°17' W 002°10'0 0.0
2016-May-28 06:31N 47°17' W 002°10'0 0.0
2016-May-28 05:31N 47°17' W 002°10'0 0.0
2016-May-28 04:31N 47°17' W 002°10'0 0.0
2016-May-28 03:32N 47°17' W 002°10'0 0.0
2016-May-28 02:28N 47°17' W 002°10'0 0.0
2016-May-28 01:31N 47°17' W 002°10'0 0.0
2016-May-28 00:31N 47°17' W 002°10'0 0.0
2016-May-27 23:31N 47°17' W 002°10'0 0.0
2016-May-27 22:31N 47°17' W 002°10'0 0.0
2016-May-27 21:31N 47°17' W 002°10'0 0.0
2016-May-27 20:31N 47°17' W 002°10'0 0.0
2016-May-27 19:33N 47°17' W 002°10'1010.3
2016-May-27 18:34N 47°09' W 002°19'1616.3
2016-May-27 17:33N 46°60' W 002°39'1918.6
2016-May-27 16:33N 46°49' W 003°01'1918.2
2016-May-27 15:30N 46°37' W 003°23'1718.2
2016-May-27 14:33N 46°27' W 003°44'  
2016-May-23 23:31N 46°44' W 003°16'1918.6
2016-May-23 22:30N 46°55' W 002°53'1516.4
2016-May-23 21:33N 47°02' W 002°34'1716.7
2016-May-23 20:34N 47°14' W 002°16'6 5.4
2016-May-23 19:33N 47°17' W 002°10'0 0.0
2016-May-23 18:33N 47°17' W 002°10'0 0.0
2016-May-23 17:33N 47°17' W 002°10'0 0.0
2016-May-23 16:26N 47°17' W 002°10'0 0.0
2016-May-23 15:32N 47°17' W 002°10'0 0.0
2016-May-23 14:23N 47°17' W 002°10'0 0.0
2016-May-23 13:32N 47°17' W 002°10'0 0.0
2016-May-23 12:32N 47°17' W 002°10'0 0.0
2016-May-23 11:32N 47°17' W 002°10'0 0.0
2016-May-23 10:32N 47°17' W 002°10'0 0.0
2016-May-23 09:29N 47°17' W 002°10'0 0.0
2016-May-23 08:29N 47°17' W 002°10'0 0.0
2016-May-23 07:32N 47°17' W 002°10'0 0.0
2016-May-23 06:32N 47°17' W 002°10'0 0.0
2016-May-23 05:29N 47°17' W 002°10'0 0.0
2016-May-23 04:32N 47°17' W 002°10'0 0.0
2016-May-23 03:32N 47°17' W 002°10'0 0.0
2016-May-23 02:32N 47°17' W 002°10'0 0.0
2016-May-23 01:32N 47°17' W 002°10'0 0.0
2016-May-23 00:32N 47°17' W 002°10'0 0.0
2016-May-22 23:32N 47°17' W 002°10'0 0.0
2016-May-22 22:32N 47°17' W 002°10'0 0.0
2016-May-22 21:32N 47°17' W 002°10'0 0.0
2016-May-22 20:32N 47°17' W 002°10'0 0.0
2016-May-22 19:29N 47°17' W 002°10'0 0.0
2016-May-22 18:32N 47°17' W 002°10'0 0.0
2016-May-22 17:32N 47°17' W 002°10'19426219.3
2016-May-22 17:13N 31°39' E 034°32'0 0.0
2016-May-22 16:33N 31°39' E 034°32'194272067.3
2016-May-22 16:32N 47°17' W 002°10'0 0.0
2016-May-22 15:32N 47°17' W 002°10'194215163.8
2016-May-22 15:24N 31°39' E 034°32'19422225.6
2016-May-22 14:32N 47°17' W 002°10'0 0.0
2016-May-22 13:32N 47°17' W 002°10'19424218.8
2016-May-22 13:04N 31°39' E 034°32'19423289.7
2016-May-22 12:29N 47°17' W 002°10'0 0.0
2016-May-22 11:31N 47°17' W 002°10'0 0.0
2016-May-22 10:31N 47°17' W 002°10'0 0.0
2016-May-22 09:31N 47°17' W 002°10'0 0.0
2016-May-22 08:31N 47°17' W 002°10'0 0.0
2016-May-22 07:31N 47°17' W 002°10'19425440.1
2016-May-22 07:10N 31°39' E 034°32'0 0.0
2016-May-22 06:33N 31°39' E 034°32'194259241.9
2016-May-22 06:31N 47°17' W 002°10'0 0.0
2016-May-22 05:31N 47°17' W 002°10'19422009.4
2016-May-22 04:33N 31°39' E 034°32'194256833.6
2016-May-22 04:31N 47°17' W 002°10'19422009.9
2016-May-22 03:33N 31°39' E 034°32'194256375.2
2016-May-22 03:31N 47°17' W 002°10'0 0.0
2016-May-22 02:31N 47°17' W 002°10'19428815.3
2016-May-22 02:18N 31°39' E 034°32'0 0.0
2016-May-22 01:33N 31°39' E 034°32'194214295.6
2016-May-22 01:25N 47°17' W 002°10'19422219.2
2016-May-22 00:33N 31°39' E 034°32'194275984.2
2016-May-22 00:31N 47°17' W 002°10'0 0.0
2016-May-21 23:28N 47°17' W 002°10'0 0.0
2016-May-21 22:31N 47°17' W 002°10'0 0.0
2016-May-21 21:31N 47°17' W 002°10'0 0.0
2016-May-21 20:28N 47°17' W 002°10'0 0.0
2016-May-21 19:31N 47°17' W 002°10'19424265.1
2016-May-21 19:04N 31°39' E 034°32'19423559.3
2016-May-21 18:31N 47°17' W 002°10'0 0.0
2016-May-21 17:31N 47°17' W 002°10'0 0.0
2016-May-21 16:25N 47°17' W 002°10'0 0.0
2016-May-21 15:31N 47°17' W 002°10'0 0.0
2016-May-21 14:31N 47°17' W 002°10'0 0.0
2016-May-21 13:31N 47°17' W 002°10'0 0.0
2016-May-21 12:31N 47°17' W 002°10'194274367.4
2016-May-21 12:29N 31°39' E 034°32'19421992.7
2016-May-21 11:31N 47°17' W 002°10'0 0.0
2016-May-21 10:31N 47°17' W 002°10'19425216.8
2016-May-21 10:08N 31°39' E 034°32'19423357.6
2016-May-21 09:34N 47°17' W 002°10'0 0.0
2016-May-21 08:31N 47°17' W 002°10'0 0.0
2016-May-21 07:33N 47°17' W 002°10'0 0.0
2016-May-21 06:33N 47°17' W 002°10'0 0.0
2016-May-21 05:33N 47°17' W 002°10'0 0.0
2016-May-21 04:33N 47°17' W 002°10'0 0.0
2016-May-21 03:33N 47°17' W 002°10'0 0.0
2016-May-21 02:33N 47°17' W 002°10'0 0.0
2016-May-21 01:33N 47°17' W 002°10'0 0.0
2016-May-21 00:33N 47°17' W 002°10'0 0.0
2016-May-20 23:33N 47°17' W 002°10'0 0.0
2016-May-20 22:33N 47°17' W 002°10'0 0.0
2016-May-20 21:33N 47°17' W 002°10'0 0.0
2016-May-20 20:33N 47°17' W 002°10'0 0.0
2016-May-20 19:33N 47°17' W 002°10'0 0.0
2016-May-20 18:33N 47°17' W 002°10'0 0.0
2016-May-20 17:33N 47°17' W 002°10'0 0.0
2016-May-20 16:33N 47°17' W 002°10'0 0.0
2016-May-20 15:33N 47°17' W 002°10'0 0.0
2016-May-20 14:30N 47°17' W 002°10'0 0.0
2016-May-20 13:33N 47°17' W 002°10'0 0.0
2016-May-20 12:33N 47°17' W 002°10'0 0.0
2016-May-20 11:33N 47°17' W 002°10'0 0.0
2016-May-20 10:33N 47°17' W 002°10'0 0.0
2016-May-20 09:33N 47°17' W 002°10'0 0.0
2016-May-20 08:33N 47°17' W 002°10'0 0.0
2016-May-20 07:30N 47°17' W 002°10'0 0.0
2016-May-20 06:33N 47°17' W 002°10'0 0.0
2016-May-20 05:33N 47°17' W 002°10'0 0.0
2016-May-20 04:33N 47°17' W 002°10'0 0.0
2016-May-20 03:33N 47°17' W 002°10'0 0.0
2016-May-20 02:32N 47°17' W 002°10'0 0.0
2016-May-20 01:29N 47°17' W 002°10'0 0.0
2016-May-20 00:32N 47°17' W 002°10'0 0.0
2016-May-19 23:32N 47°17' W 002°10'0 0.0
2016-May-19 22:32N 47°17' W 002°10'0 0.0
2016-May-19 21:29N 47°17' W 002°10'0 0.0
2016-May-19 20:33N 47°17' W 002°10'1413.5
2016-May-19 19:33N 47°07' W 002°23'1615.7
2016-May-19 18:33N 46°58' W 002°42'  

Dump ship's entire track history